Time;durP1;ratioP1;P1;durP2;ratioP2;P2;SDS_P1;SDS_P2;PMS_P1;PMS_P2;Temp;Humidity;BMP_temperature;BMP_pressure;BME280_temperature;BME280_humidity;BME280_pressure;Samples;Min_cycle;Max_cycle;Signal;HPM_P1;HPM_P2
2023/04/13 00:52:57;;;;;;;2.53;0.80;;;8.20;99.90;;;;;;5026781;28;20038;-85
2023/04/13 00:55:24;;;;;;;6.47;1.30;;;9.00;99.90;;;;;;5029818;28;20025;-86
2023/04/13 00:57:53;;;;;;;2.95;0.90;;;8.20;99.90;;;;;;5025660;28;20026;-84
2023/04/13 01:00:20;;;;;;;2.65;1.00;;;8.20;99.90;;;;;;5005516;28;20022;-86
2023/04/13 01:02:46;;;;;;;3.22;0.80;;;8.10;99.90;;;;;;5016944;28;20017;-86
2023/04/13 01:05:15;;;;;;;4.65;1.20;;;8.20;99.90;;;;;;5023712;28;20136;-87
2023/04/13 01:07:49;;;;;;;8.35;1.15;;;8.00;99.90;;;;;;5009100;28;20033;-85
2023/04/13 01:10:36;;;;;;;4.22;1.05;;;7.90;99.90;;;;;;5034292;28;20017;-83
2023/04/13 01:13:12;;;;;;;3.60;0.85;;;7.90;99.90;;;;;;5009934;28;20034;-83
2023/04/13 01:15:45;;;;;;;7.03;1.45;;;7.90;99.90;;;;;;5019358;28;20032;-84
2023/04/13 01:18:16;;;;;;;3.03;0.85;;;7.90;99.90;;;;;;5007839;28;20026;-83
2023/04/13 01:20:45;;;;;;;2.67;0.73;;;7.90;99.90;;;;;;5015576;28;20040;-87
2023/04/13 01:23:27;;;;;;;3.45;1.20;;;8.00;99.90;;;;;;5009030;28;20034;-82
2023/04/13 01:26:01;;;;;;;7.97;1.38;;;8.00;99.90;;;;;;5003946;28;20794;-83
2023/04/13 01:28:29;;;;;;;3.85;1.02;;;8.00;99.90;;;;;;5027590;28;20083;-84
2023/04/13 01:31:00;;;;;;;3.10;0.93;;;8.00;99.90;;;;;;5002182;28;20061;-83
2023/04/13 01:33:29;;;;;;;3.78;1.10;;;8.00;99.90;;;;;;4993264;28;20127;-83
2023/04/13 01:35:57;;;;;;;4.68;1.15;;;8.10;99.90;;;;;;5013359;28;20069;-86
2023/04/13 01:38:24;;;;;;;3.00;1.08;;;8.00;99.90;;;;;;5008025;28;20029;-86
2023/04/13 01:40:50;;;;;;;5.65;1.00;;;9.00;99.90;;;;;;5013157;28;20025;-85
2023/04/13 01:43:19;;;;;;;2.63;0.90;;;8.10;99.90;;;;;;5017124;28;20036;-83
2023/04/13 01:45:56;;;;;;;7.97;1.10;;;8.10;99.90;;;;;;5016976;28;20492;-85
2023/04/13 01:48:28;;;;;;;4.93;1.08;;;8.10;99.90;;;;;;5022544;28;20025;-85
2023/04/13 01:50:59;;;;;;;5.53;0.95;;;9.40;99.90;;;;;;5006949;28;20026;-83
2023/04/13 01:53:29;;;;;;;2.70;0.85;;;8.10;99.90;;;;;;5010114;28;20040;-83
2023/04/13 01:55:55;;;;;;;;;;;8.20;99.90;;;;;;5017747;28;20485;-85
2023/04/13 01:58:26;;;;;;;6.05;1.20;;;8.20;99.90;;;;;;5014472;28;19924;-86
2023/04/13 02:00:53;;;;;;;3.17;0.90;;;8.30;99.90;;;;;;5007353;28;20030;-84
2023/04/13 02:03:21;;;;;;;5.22;1.20;;;8.20;99.90;;;;;;5010206;28;20124;-84
2023/04/13 02:05:49;;;;;;;3.28;0.82;;;8.30;99.90;;;;;;5011399;28;20086;-86
2023/04/13 02:08:17;;;;;;;3.47;1.10;;;8.30;99.90;;;;;;5002491;28;20022;-84
2023/04/13 02:10:44;;;;;;;7.00;1.27;;;8.20;99.90;;;;;;5005213;28;20120;-85
2023/04/13 02:13:10;;;;;;;3.95;1.10;;;8.20;99.90;;;;;;5008145;28;20058;-85
2023/04/13 02:15:38;;;;;;;7.18;1.10;;;8.10;99.90;;;;;;5011600;28;20018;-85
2023/04/13 02:18:05;;;;;;;5.63;1.13;;;8.20;99.90;;;;;;4999075;28;20162;-83
2023/04/13 02:20:42;;;;;;;2.58;0.88;;;8.10;99.90;;;;;;5009515;28;20025;-87
2023/04/13 02:23:09;;;;;;;3.50;1.00;;;8.10;99.90;;;;;;5006390;28;20124;-86
2023/04/13 02:25:35;;;;;;;3.47;1.10;;;8.10;99.90;;;;;;5011684;28;20481;-85
2023/04/13 02:28:01;;;;;;;4.53;1.00;;;8.20;99.90;;;;;;5015392;28;20029;-81
2023/04/13 02:30:28;;;;;;;5.60;1.42;;;8.30;99.90;;;;;;4995178;28;20033;-85
2023/04/13 02:32:55;;;;;;;4.05;1.10;;;8.30;99.90;;;;;;5012069;28;20034;-82
2023/04/13 02:35:24;;;;;;;5.80;1.15;;;9.90;99.90;;;;;;5016312;28;20072;-84
2023/04/13 02:37:50;;;;;;;4.88;1.73;;;8.30;99.90;;;;;;5006848;28;20022;-82
2023/04/13 02:40:16;;;;;;;9.05;1.70;;;8.30;99.90;;;;;;4999090;28;20113;-81
2023/04/13 02:42:42;;;;;;;5.53;1.00;;;8.30;99.90;;;;;;5005958;28;20428;-83
2023/04/13 02:45:13;;;;;;;5.75;1.40;;;8.30;99.90;;;;;;5006676;28;20068;-80
2023/04/13 02:47:39;;;;;;;5.97;1.15;;;8.20;99.90;;;;;;5009482;28;20025;-81
2023/04/13 02:50:05;;;;;;;8.48;1.25;;;8.30;99.90;;;;;;5017709;28;20517;-82
2023/04/13 02:52:31;;;;;;;2.72;0.77;;;8.40;99.90;;;;;;5016629;28;20037;-87
2023/04/13 02:54:57;;;;;;;6.68;1.50;;;8.40;99.90;;;;;;5026994;28;20014;-81
2023/04/13 02:57:24;;;;;;;7.10;1.65;;;8.20;99.90;;;;;;5020347;28;20026;-81
2023/04/13 02:59:50;;;;;;;4.47;0.90;;;8.10;99.90;;;;;;5006224;28;20030;-83
2023/04/13 03:02:17;;;;;;;5.63;1.23;;;8.00;99.90;;;;;;5008746;28;20040;-84
2023/04/13 03:04:44;;;;;;;5.65;1.30;;;8.10;99.90;;;;;;5016347;28;20035;-86
2023/04/13 03:07:13;;;;;;;5.45;1.10;;;8.10;99.90;;;;;;5038050;28;20026;-86
2023/04/13 03:09:39;;;;;;;7.28;1.15;;;8.20;99.90;;;;;;5011138;28;20113;-81
2023/04/13 03:12:08;;;;;;;7.25;1.23;;;8.00;99.90;;;;;;5026174;28;20030;-85
2023/04/13 03:14:36;;;;;;;5.20;1.25;;;8.00;99.90;;;;;;5013801;28;20090;-84
2023/04/13 03:17:10;;;;;;;5.85;1.23;;;8.00;99.90;;;;;;5012796;28;20703;-88
2023/04/13 03:19:36;;;;;;;9.35;1.63;;;8.00;99.90;;;;;;5014020;28;20032;-83
2023/04/13 03:22:01;;;;;;;6.95;1.30;;;8.30;99.90;;;;;;5016759;28;20943;-84
2023/04/13 03:24:27;;;;;;;6.35;1.48;;;8.10;99.90;;;;;;5032795;28;20384;-85
2023/04/13 03:26:59;;;;;;;11.30;1.35;;;8.90;99.90;;;;;;5021697;28;21555;-86
2023/04/13 03:29:25;;;;;;;7.65;1.40;;;8.20;99.90;;;;;;5031822;28;20025;-86
2023/04/13 03:31:51;;;;;;;6.43;1.00;;;8.20;99.90;;;;;;5013049;28;20034;-84
2023/04/13 03:34:17;;;;;;;9.07;1.27;;;8.20;99.90;;;;;;5015826;28;20079;-85
2023/04/13 03:36:44;;;;;;;9.00;1.60;;;8.10;99.90;;;;;;5017678;28;20028;-82
2023/04/13 03:39:10;;;;;;;6.63;1.30;;;7.90;99.90;;;;;;5007081;28;20125;-86
2023/04/13 03:41:35;;;;;;;7.28;1.35;;;8.00;99.90;;;;;;5001885;28;20072;-83
2023/04/13 03:44:01;;;;;;;6.07;1.52;;;7.90;99.90;;;;;;5010196;28;20029;-82
2023/04/13 03:46:30;;;;;;;9.40;1.30;;;7.80;99.90;;;;;;5022411;28;20029;-85
2023/04/13 03:48:56;;;;;;;7.00;1.42;;;7.70;99.90;;;;;;5006304;28;20490;-81
2023/04/13 03:51:23;;;;;;;7.15;1.60;;;7.80;99.90;;;;;;5006114;28;20029;-85
2023/04/13 03:53:49;;;;;;;6.22;1.30;;;7.70;99.90;;;;;;5009949;28;20035;-81
2023/04/13 03:56:14;;;;;;;6.15;1.48;;;7.70;99.90;;;;;;5007490;28;20113;-82
2023/04/13 03:58:40;;;;;;;6.75;1.23;;;7.70;99.90;;;;;;5008857;28;20034;-84
2023/04/13 04:01:09;;;;;;;11.15;1.45;;;7.60;99.90;;;;;;5004955;28;20069;-85
2023/04/13 04:03:37;;;;;;;6.90;1.90;;;7.50;99.90;;;;;;5010543;28;20176;-85
2023/04/13 04:06:04;;;;;;;7.60;1.35;;;7.60;99.90;;;;;;5009542;28;20037;-83
2023/04/13 04:08:33;;;;;;;6.03;1.63;;;7.60;99.90;;;;;;5011445;28;20108;-87
2023/04/13 04:10:59;;;;;;;9.52;1.90;;;7.60;99.90;;;;;;5006255;28;20026;-86
2023/04/13 04:13:25;;;;;;;8.35;1.23;;;7.50;99.90;;;;;;5029307;28;20030;-83
2023/04/13 04:15:51;;;;;;;8.80;1.30;;;7.60;99.90;;;;;;5019723;28;20022;-85
2023/04/13 04:18:17;;;;;;;9.57;1.83;;;8.50;99.90;;;;;;5019790;28;20053;-87
2023/04/13 04:20:42;;;;;;;9.32;1.45;;;8.30;99.90;;;;;;5034030;28;20221;-86
2023/04/13 04:23:09;;;;;;;7.15;1.40;;;8.60;99.90;;;;;;5011786;28;20057;-83
2023/04/13 04:25:37;;;;;;;8.88;1.60;;;7.60;99.90;;;;;;5031027;28;20025;-87
2023/04/13 04:28:03;;;;;;;6.85;1.42;;;7.70;99.90;;;;;;5011188;28;20102;-85
2023/04/13 04:30:32;;;;;;;8.40;1.83;;;7.70;99.90;;;;;;5008379;28;20037;-85
2023/04/13 04:33:01;;;;;;;4.97;1.30;;;7.70;99.90;;;;;;5004436;28;20489;-87
2023/04/13 04:35:32;;;;;;;8.20;1.77;;;8.20;99.90;;;;;;5036560;28;20025;-87
2023/04/13 04:38:03;;;;;;;4.63;1.35;;;8.50;99.90;;;;;;5020378;28;20055;-83
2023/04/13 04:40:29;;;;;;;9.00;1.45;;;8.90;99.90;;;;;;5021547;28;20080;-85
2023/04/13 04:42:56;;;;;;;6.53;1.88;;;8.50;99.90;;;;;;5030256;28;20112;-85
2023/04/13 04:45:22;;;;;;;7.20;1.80;;;7.80;99.90;;;;;;5041688;28;20025;-85
2023/04/13 04:47:49;;;;;;;15.27;1.83;;;7.70;99.90;;;;;;5025836;28;20032;-86
2023/04/13 04:50:16;;;;;;;11.93;1.50;;;7.70;99.90;;;;;;5028684;28;20030;-84
2023/04/13 04:52:42;;;;;;;14.27;1.58;;;8.10;99.90;;;;;;5009967;28;20036;-85
2023/04/13 04:55:09;;;;;;;10.15;1.70;;;7.60;99.90;;;;;;5004310;28;20025;-86
2023/04/13 04:57:35;;;;;;;7.70;1.80;;;7.60;99.90;;;;;;5009126;28;20045;-87
2023/04/13 05:00:14;;;;;;;8.07;1.50;;;8.80;99.90;;;;;;5007172;28;20037;-85
2023/04/13 05:02:39;;;;;;;11.10;2.60;;;7.70;99.90;;;;;;5010310;28;20026;-87
2023/04/13 05:05:05;;;;;;;8.10;1.75;;;7.70;99.90;;;;;;5011954;28;20041;-86
2023/04/13 05:07:31;;;;;;;12.00;1.75;;;7.70;99.90;;;;;;5009986;28;20025;-84
2023/04/13 05:09:57;;;;;;;7.57;1.70;;;7.80;99.90;;;;;;5013542;28;20054;-86
2023/04/13 05:12:22;;;;;;;10.10;1.80;;;7.60;99.90;;;;;;5010131;28;20038;-85
2023/04/13 05:14:48;;;;;;;8.98;1.58;;;9.20;99.90;;;;;;5025760;28;20029;-83
2023/04/13 05:17:17;;;;;;;13.85;2.63;;;7.60;99.90;;;;;;5037377;28;20030;-87
2023/04/13 05:19:46;;;;;;;10.27;2.70;;;8.40;99.90;;;;;;5013149;28;20030;-85
2023/04/13 05:22:14;;;;;;;8.95;1.55;;;7.60;99.90;;;;;;5043509;28;20014;-86
2023/04/13 05:24:39;;;;;;;12.23;2.05;;;7.50;99.90;;;;;;5023776;28;20116;-85
2023/04/13 05:27:08;;;;;;;11.63;2.83;;;7.50;99.90;;;;;;5028600;28;20052;-83
2023/04/13 05:29:34;;;;;;;9.00;2.10;;;8.40;99.90;;;;;;5021095;28;20017;-84
2023/04/13 05:32:01;;;;;;;9.48;2.28;;;8.50;99.90;;;;;;5024119;28;20101;-84
2023/04/13 05:34:27;;;;;;;15.82;1.92;;;8.40;99.90;;;;;;5039533;28;20021;-85
2023/04/13 05:36:52;;;;;;;17.30;2.25;;;7.50;99.90;;;;;;5033856;28;20124;-87
2023/04/13 05:39:19;;;;;;;11.00;2.30;;;7.60;99.90;;;;;;5021681;28;20149;-88
2023/04/13 05:41:47;;;;;;;8.27;1.85;;;7.70;99.90;;;;;;5025947;28;20543;-85
2023/04/13 05:44:13;;;;;;;7.55;2.90;;;7.90;99.90;;;;;;5023709;28;20033;-84
2023/04/13 05:46:38;;;;;;;9.55;1.98;;;8.00;99.90;;;;;;5015741;28;20472;-85
2023/04/13 05:49:04;;;;;;;9.93;1.92;;;8.00;99.90;;;;;;5022671;28;20061;-84
2023/04/13 05:51:30;;;;;;;10.10;1.90;;;9.80;99.90;;;;;;5027502;28;20038;-86
2023/04/13 05:53:56;;;;;;;15.65;2.10;;;7.90;99.90;;;;;;5020375;28;20034;-84
2023/04/13 05:56:23;;;;;;;9.85;1.90;;;8.00;99.90;;;;;;5034752;28;20033;-81
2023/04/13 05:58:49;;;;;;;14.38;2.67;;;9.80;99.90;;;;;;5019978;28;20056;-85
2023/04/13 06:01:15;;;;;;;10.15;1.85;;;8.90;99.90;;;;;;5010064;28;20029;-80
2023/04/13 06:03:42;;;;;;;9.77;1.80;;;10.00;99.90;;;;;;5043784;28;20373;-83
2023/04/13 06:06:07;;;;;;;10.85;2.03;;;7.90;99.90;;;;;;5008648;28;20120;-85
2023/04/13 06:08:33;;;;;;;9.90;1.95;;;8.00;99.90;;;;;;5016850;28;20061;-86
2023/04/13 06:11:00;;;;;;;9.10;2.15;;;8.70;99.90;;;;;;5046674;28;20506;-85
2023/04/13 06:13:26;;;;;;;12.50;2.35;;;8.90;99.90;;;;;;5029412;28;20124;-85
2023/04/13 06:15:52;;;;;;;12.02;2.67;;;8.00;99.90;;;;;;5022649;28;20017;-86
2023/04/13 06:18:18;;;;;;;17.17;2.28;;;6.80;99.90;;;;;;5026420;28;20037;-86
2023/04/13 06:20:45;;;;;;;11.75;2.30;;;7.90;99.90;;;;;;5022341;28;20079;-88
2023/04/13 06:23:14;;;;;;;10.45;2.50;;;9.00;99.90;;;;;;5021182;28;20045;-87
2023/04/13 06:25:40;;;;;;;13.48;2.25;;;8.00;99.90;;;;;;5021616;28;20025;-89
2023/04/13 06:28:05;;;;;;;15.60;3.28;;;8.00;99.90;;;;;;5039160;28;20108;-83
2023/04/13 06:30:31;;;;;;;11.30;1.92;;;8.10;99.90;;;;;;5005142;28;20049;-87
2023/04/13 06:32:57;;;;;;;12.23;2.05;;;8.10;99.90;;;;;;5013182;28;20033;-85
2023/04/13 06:35:23;;;;;;;11.10;2.28;;;8.70;99.90;;;;;;4999371;28;20026;-85
2023/04/13 06:37:48;;;;;;;9.52;2.00;;;8.10;99.90;;;;;;5036896;28;20026;-85
2023/04/13 06:40:15;;;;;;;10.13;2.15;;;8.10;99.90;;;;;;5021697;28;20123;-84
2023/04/13 06:42:41;;;;;;;10.38;2.30;;;8.00;99.90;;;;;;5028263;28;20037;-86
2023/04/13 06:45:11;;;;;;;9.70;1.88;;;8.00;99.90;;;;;;5001998;28;20524;-86
2023/04/13 06:47:39;;;;;;;8.77;2.20;;;8.00;99.90;;;;;;5040670;28;20412;-87
2023/04/13 06:50:07;;;;;;;12.93;1.90;;;8.00;99.90;;;;;;5013651;28;20030;-85
2023/04/13 06:52:34;;;;;;;5.75;1.50;;;7.90;99.90;;;;;;5033894;28;20155;-85
2023/04/13 06:55:00;;;;;;;5.53;1.40;;;8.80;99.90;;;;;;5034113;28;20034;-84
2023/04/13 06:57:25;;;;;;;5.80;1.40;;;8.10;99.90;;;;;;5022200;28;20098;-85
2023/04/13 06:59:51;;;;;;;8.38;1.52;;;8.80;99.90;;;;;;5014476;28;20080;-87
2023/04/13 07:02:17;;;;;;;6.30;1.33;;;8.10;99.90;;;;;;5034650;28;20026;-88
2023/04/13 07:04:43;;;;;;;6.05;1.70;;;8.10;99.90;;;;;;5010350;28;20018;-88
2023/04/13 07:22:41;;;;;;;11.23;1.48;;;8.00;99.90;;;;;;5066975;28;20029;-90
2023/04/13 07:25:07;;;;;;;6.90;1.65;;;8.40;99.90;;;;;;5053487;28;20225;-90
2023/04/13 07:27:33;;;;;;;7.63;2.05;;;8.10;99.90;;;;;;5042931;28;20020;-89
2023/04/13 07:30:00;;;;;;;7.65;1.77;;;9.10;99.90;;;;;;5043971;28;20167;-91
2023/04/13 07:32:30;;;;;;;12.57;2.45;;;9.40;99.90;;;;;;5044843;28;20042;-88
2023/04/13 07:35:00;;;;;;;8.57;1.70;;;7.90;99.90;;;;;;5029581;28;20025;-92
2023/04/13 07:37:26;;;;;;;12.10;2.10;;;7.90;99.90;;;;;;5040356;28;20022;-88
2023/04/13 07:39:52;;;;;;;11.00;2.22;;;8.50;99.90;;;;;;5048242;28;20029;-90
2023/04/13 07:42:18;;;;;;;9.50;2.20;;;9.00;99.90;;;;;;5048597;28;20039;-86
2023/04/13 07:44:43;;;;;;;11.77;2.30;;;8.90;99.90;;;;;;5049426;28;20030;-90
2023/04/13 07:47:47;;;;;;;8.50;2.10;;;8.70;99.90;;;;;;5056722;28;20032;-89
2023/04/13 07:50:16;;;;;;;14.45;2.28;;;8.10;99.90;;;;;;5050190;28;20021;-89
2023/04/13 07:52:43;;;;;;;8.85;2.08;;;9.90;99.90;;;;;;5040642;28;20067;-90
2023/04/13 07:55:09;;;;;;;13.05;1.95;;;8.00;99.90;;;;;;5054599;28;20052;-88
2023/04/13 07:57:35;;;;;;;8.93;2.38;;;8.10;99.90;;;;;;5038386;28;20033;-90
2023/04/13 08:00:05;;;;;;;11.00;2.20;;;10.20;99.90;;;;;;5041435;28;20339;-89
2023/04/13 08:02:33;;;;;;;7.65;1.75;;;8.20;99.90;;;;;;5041328;28;20034;-89
2023/04/13 08:04:59;;;;;;;10.27;1.98;;;8.20;99.90;;;;;;5043303;28;20369;-88
2023/04/13 08:07:26;;;;;;;13.57;3.00;;;9.80;99.90;;;;;;5041938;28;20044;-91
2023/04/13 08:09:52;;;;;;;13.25;2.20;;;8.20;99.90;;;;;;5042542;28;20014;-89
2023/04/13 08:12:18;;;;;;;12.43;2.17;;;8.40;99.90;;;;;;5035518;28;20026;-91
2023/04/13 08:14:44;;;;;;;8.85;2.00;;;9.70;99.90;;;;;;5044629;28;20922;-90
2023/04/13 08:17:10;;;;;;;15.18;2.70;;;9.10;99.90;;;;;;5052995;28;20045;-90
2023/04/13 08:19:39;;;;;;;15.52;2.53;;;9.40;99.90;;;;;;5045088;28;20017;-87
2023/04/13 08:22:05;;;;;;;12.60;2.53;;;9.50;99.90;;;;;;5038796;28;20544;-88
2023/04/13 08:24:31;;;;;;;11.35;2.28;;;9.90;99.90;;;;;;5046211;28;20033;-89
2023/04/13 08:26:57;;;;;;;8.93;1.90;;;8.30;99.90;;;;;;5049344;28;20060;-89
2023/04/13 08:29:24;;;;;;;11.63;2.40;;;9.90;99.90;;;;;;5050513;28;20014;-90
2023/04/13 09:58:01;;;;;;;13.25;2.75;;;10.00;99.90;;;;;;5033322;28;20108;-87
2023/04/13 10:00:49;;;;;;;12.13;2.30;;;10.00;99.90;;;;;;5016222;28;20025;-86
2023/04/13 10:04:19;;;;;;;13.50;2.58;;;9.90;99.90;;;;;;5026458;28;20021;-90
2023/04/13 10:10:50;;;;;;;12.15;2.60;;;10.30;99.90;;;;;;4999278;28;20464;-87
2023/04/13 10:14:27;;;;;;;13.07;2.38;;;10.40;99.90;;;;;;5005267;28;20033;-87
2023/04/13 10:27:22;;;;;;;;;;;11.10;99.90;;;;;;4975370;28;20038;-87
2023/04/13 10:29:54;;;;;;;13.85;2.65;;;11.40;99.90;;;;;;5022373;28;19924;-87
2023/04/13 10:33:04;;;;;;;13.38;2.45;;;11.50;99.90;;;;;;5023598;28;20386;-86
2023/04/13 10:35:48;;;;;;;9.93;2.50;;;11.70;99.90;;;;;;5023763;28;20037;-83
2023/04/13 10:38:14;;;;;;;10.65;2.13;;;11.90;99.90;;;;;;5029582;28;20094;-84
2023/04/13 10:40:42;;;;;;;10.77;2.58;;;12.10;99.90;;;;;;5024951;28;20038;-82
2023/04/13 10:43:08;;;;;;;12.73;2.13;;;12.40;99.90;;;;;;5026486;28;20036;-84
2023/04/13 10:45:36;;;;;;;9.90;2.17;;;;;;;;;;5028216;28;20030;-83
2023/04/13 10:48:34;;;;;;;12.60;2.28;;;12.20;99.90;;;;;;5037095;28;20042;-87
2023/04/13 10:51:00;;;;;;;7.57;1.80;;;12.40;99.90;;;;;;5013434;28;20045;-86
2023/04/13 10:53:29;;;;;;;9.23;1.92;;;12.20;99.90;;;;;;5026052;28;20049;-85
2023/04/13 10:55:56;;;;;;;10.23;2.67;;;12.50;99.90;;;;;;5023205;28;20033;-84
2023/04/13 10:58:22;;;;;;;9.98;2.20;;;12.30;99.90;;;;;;5019074;28;20514;-87
2023/04/13 11:00:49;;;;;;;9.48;2.30;;;12.20;99.90;;;;;;5024155;28;20337;-85
2023/04/13 11:03:17;;;;;;;11.80;2.65;;;12.30;99.90;;;;;;5025494;28;20030;-85
2023/04/13 11:05:47;;;;;;;8.57;2.05;;;12.20;99.90;;;;;;5020429;28;20030;-83
2023/04/13 11:08:19;;;;;;;11.43;2.70;;;12.00;99.90;;;;;;5021916;28;20030;-83
2023/04/13 11:10:52;;;;;;;11.23;2.60;;;12.20;99.90;;;;;;5020267;28;20336;-88
2023/04/13 11:13:18;;;;;;;9.43;2.45;;;12.10;99.90;;;;;;5021586;28;20041;-85
2023/04/13 11:15:44;;;;;;;14.05;2.97;;;12.10;99.90;;;;;;5017058;28;20056;-87
2023/04/13 11:18:10;;;;;;;10.85;2.30;;;;;;;;;;5018878;28;20030;-84
2023/04/13 11:20:38;;;;;;;11.38;2.63;;;12.20;99.90;;;;;;5028048;28;20027;-86
2023/04/13 11:23:05;;;;;;;9.68;2.30;;;12.20;99.90;;;;;;5023617;28;20049;-87
2023/04/13 11:25:35;;;;;;;8.75;1.83;;;12.30;99.90;;;;;;5021860;28;20022;-84
2023/04/13 11:28:02;;;;;;;10.10;2.00;;;12.30;99.90;;;;;;5024330;28;20102;-87
2023/04/13 11:30:29;;;;;;;8.98;2.22;;;12.00;99.90;;;;;;5025278;28;20040;-88
2023/04/13 11:33:01;;;;;;;11.02;2.25;;;12.50;99.90;;;;;;5024742;28;20030;-84
2023/04/13 11:35:27;;;;;;;9.80;2.42;;;12.10;99.90;;;;;;5020705;28;20577;-83
2023/04/13 11:37:54;;;;;;;9.38;2.50;;;12.10;99.90;;;;;;5023358;28;20099;-87
2023/04/13 11:40:26;;;;;;;11.48;2.67;;;12.00;99.90;;;;;;5023882;28;20029;-82
2023/04/13 11:42:59;;;;;;;15.68;2.30;;;12.10;99.90;;;;;;5024419;28;20071;-86
2023/04/13 11:45:27;;;;;;;14.40;3.95;;;11.90;99.90;;;;;;5025065;28;20034;-85
2023/04/13 11:47:54;;;;;;;9.93;2.40;;;12.20;99.90;;;;;;5022326;28;20097;-85
2023/04/13 11:50:21;;;;;;;12.80;2.22;;;12.20;99.90;;;;;;5021270;28;20102;-86
2023/04/13 11:52:50;;;;;;;11.75;2.28;;;12.70;99.90;;;;;;5018759;28;20038;-86
2023/04/13 11:55:17;;;;;;;12.25;2.38;;;13.00;99.90;;;;;;5027421;28;20048;-85
2023/04/13 11:57:44;;;;;;;9.23;2.03;;;13.30;99.00;;;;;;5009875;28;20040;-85
2023/04/13 12:00:17;;;;;;;11.23;2.30;;;13.40;98.00;;;;;;5019862;28;20474;-86
2023/04/13 12:02:43;;;;;;;10.40;2.40;;;13.50;97.40;;;;;;5019203;28;20463;-84
2023/04/13 12:05:23;;;;;;;9.27;2.35;;;13.60;96.40;;;;;;5020893;28;20056;-86
2023/04/13 12:07:52;;;;;;;8.73;2.25;;;13.60;96.30;;;;;;5018254;28;20029;-85
2023/04/13 12:10:33;;;;;;;7.38;2.20;;;13.60;96.00;;;;;;5017698;28;20030;-85
2023/04/13 12:13:01;;;;;;;10.50;2.13;;;14.00;95.70;;;;;;5015210;28;20030;-84
2023/04/13 12:15:30;;;;;;;9.32;1.85;;;13.40;96.00;;;;;;5020866;28;20037;-86
2023/04/13 12:17:58;;;;;;;7.18;1.77;;;;;;;;;;5028089;28;20025;-85
2023/04/13 12:20:35;;;;;;;7.00;2.25;;;;;;;;;;5023006;28;20100;-84
2023/04/13 12:23:01;;;;;;;8.10;1.55;;;;;;;;;;5020945;28;20275;-83
2023/04/13 12:25:28;;;;;;;5.97;1.95;;;13.40;96.50;;;;;;5022269;28;20525;-86
2023/04/13 12:27:54;;;;;;;9.25;2.40;;;;;;;;;;5027235;28;20040;-83
2023/04/13 12:30:21;;;;;;;7.38;1.70;;;13.20;98.70;;;;;;5023460;28;20487;-86
2023/04/13 12:32:51;;;;;;;7.47;1.58;;;;;;;;;;5022072;28;20120;-86
2023/04/13 12:35:20;;;;;;;6.47;1.40;;;;;;;;;;5023773;28;20026;-84
2023/04/13 12:37:47;;;;;;;6.82;1.50;;;;;;;;;;5023931;28;20057;-88
2023/04/13 12:40:14;;;;;;;5.57;1.30;;;;;;;;;;5029338;28;20022;-85
2023/04/13 12:42:41;;;;;;;4.82;1.08;;;;;;;;;;5034443;28;20026;-86
2023/04/13 12:45:08;;;;;;;11.10;1.70;;;;;;;;;;5029400;28;20074;-86
2023/04/13 12:47:34;;;;;;;7.00;1.42;;;12.30;99.90;;;;;;5034504;28;20017;-87
2023/04/13 12:50:00;;;;;;;5.63;1.20;;;;;;;;;;5027998;23;20046;-89
2023/04/13 12:52:28;;;;;;;5.53;1.23;;;;;;;;;;5027736;28;20556;-89
2023/04/13 12:54:54;;;;;;;6.53;1.70;;;;;;;;;;5017844;28;20037;-88
2023/04/13 12:57:20;;;;;;;6.55;1.52;;;;;;;;;;5008917;28;20018;-89
2023/04/13 12:59:46;;;;;;;5.22;1.23;;;;;;;;;;4993000;28;20022;-89
2023/04/13 13:02:12;;;;;;;4.72;1.40;;;13.40;99.90;;;;;;5007804;28;20025;-88
2023/04/13 13:04:38;;;;;;;6.35;1.48;;;12.50;99.90;;;;;;5010048;28;20073;-87
2023/04/13 13:07:04;;;;;;;6.60;1.67;;;;;;;;;;5006538;28;20026;-88
2023/04/13 13:09:29;;;;;;;5.50;1.50;;;13.60;98.80;;;;;;5005254;28;20014;-88
2023/04/13 13:11:55;;;;;;;5.25;1.33;;;;;;;;;;5003518;28;20036;-89
2023/04/13 13:14:22;;;;;;;5.10;1.50;;;;;;;;;;5006009;28;20106;-88
2023/04/13 13:16:50;;;;;;;5.88;1.55;;;14.30;97.60;;;;;;5007798;28;20018;-89
2023/04/13 13:19:16;;;;;;;7.70;1.80;;;15.10;97.50;;;;;;5009563;28;20042;-89
2023/04/13 13:21:42;;;;;;;4.78;1.63;;;;;;;;;;5009958;28;20106;-87
2023/04/13 13:24:08;;;;;;;4.53;1.70;;;;;;;;;;5004053;28;20035;-89
2023/04/13 13:26:34;;;;;;;5.72;1.70;;;;;;;;;;5007033;28;20034;-88
2023/04/13 13:29:00;;;;;;;6.50;1.38;;;;;;;;;;5005815;28;20037;-88
2023/04/13 13:31:26;;;;;;;5.32;1.33;;;;;;;;;;5008719;28;20035;-89
2023/04/13 13:33:53;;;;;;;5.75;1.40;;;;;;;;;;5008740;28;20521;-89
2023/04/13 13:36:19;;;;;;;4.55;1.45;;;;;;;;;;5010540;28;20025;-90
2023/04/13 13:38:46;;;;;;;7.18;2.15;;;14.50;90.80;;;;;;5004980;28;20125;-88
2023/04/13 13:41:12;;;;;;;7.45;1.65;;;;;;;;;;5003489;28;20037;-89
2023/04/13 13:43:38;;;;;;;4.95;1.63;;;;;;;;;;5003118;28;20015;-88
2023/04/13 13:46:04;;;;;;;6.85;1.92;;;;;;;;;;5006270;28;20022;-89
2023/04/13 13:48:31;;;;;;;4.97;1.65;;;;;;;;;;5003708;28;20065;-89
2023/04/13 13:50:57;;;;;;;8.32;1.73;;;;;;;;;;5008645;28;20039;-88
2023/04/13 13:53:23;;;;;;;7.85;2.13;;;;;;;;;;5010045;28;20050;-88
2023/04/13 13:55:49;;;;;;;8.10;2.15;;;;;;;;;;5004547;28;20022;-89
2023/04/13 13:58:15;;;;;;;5.70;1.60;;;;;;;;;;5002811;28;20038;-88
2023/04/13 14:00:41;;;;;;;5.22;1.92;;;;;;;;;;5003029;28;20038;-87
2023/04/13 14:03:07;;;;;;;5.47;1.80;;;;;;;;;;5006613;28;20065;-88
2023/04/13 14:05:33;;;;;;;6.15;1.40;;;;;;;;;;5004402;28;20042;-90
2023/04/13 14:07:59;;;;;;;4.45;1.50;;;;;;;;;;5004100;28;20027;-89
2023/04/13 14:10:26;;;;;;;6.15;1.77;;;;;;;;;;5006020;28;20470;-89
2023/04/13 14:12:54;;;;;;;9.40;1.85;;;;;;;;;;5006766;28;20389;-90
2023/04/13 14:15:20;;;;;;;11.63;2.60;;;;;;;;;;5003108;28;20102;-89
2023/04/13 14:17:46;;;;;;;9.23;2.10;;;;;;;;;;5005313;28;20042;-90
2023/04/13 14:20:12;;;;;;;8.43;2.10;;;14.90;86.30;;;;;;5024385;28;20022;-89
2023/04/13 14:22:39;;;;;;;7.88;2.45;;;15.10;83.90;;;;;;5008861;28;20018;-88
2023/04/13 14:25:07;;;;;;;6.45;1.90;;;15.20;82.30;;;;;;5006414;28;20083;-89
2023/04/13 14:27:33;;;;;;;5.25;1.67;;;;;;;;;;4994460;28;20026;-88
2023/04/13 14:30:00;;;;;;;6.18;2.10;;;;;;;;;;5008612;28;20156;-87
2023/04/13 14:32:27;;;;;;;9.52;1.88;;;;;;;;;;5004488;28;20145;-90
2023/04/13 14:34:53;;;;;;;6.35;1.58;;;;;;;;;;5003212;28;20023;-91
2023/04/13 14:37:22;;;;;;;7.10;1.88;;;;;;;;;;5000770;28;20537;-89
2023/04/13 14:39:48;;;;;;;7.63;1.40;;;;;;;;;;5002769;28;20082;-89
2023/04/13 14:42:14;;;;;;;6.15;1.73;;;;;;;;;;5004648;28;20026;-88
2023/04/13 14:44:40;;;;;;;6.88;1.95;;;;;;;;;;5002121;28;20029;-88
2023/04/13 14:47:08;;;;;;;7.00;1.80;;;;;;;;;;5007658;28;20058;-88
2023/04/13 14:49:34;;;;;;;7.65;2.13;;;;;;;;;;5001672;28;20018;-88
2023/04/13 14:52:00;;;;;;;6.88;2.17;;;;;;;;;;4996980;28;20086;-89
2023/04/13 14:54:26;;;;;;;8.10;2.17;;;;;;;;;;5005152;28;20106;-88
2023/04/13 14:56:52;;;;;;;8.50;2.28;;;;;;;;;;5003652;28;20034;-87
2023/04/13 14:59:18;;;;;;;6.25;1.98;;;;;;;;;;5007002;28;20166;-90
2023/04/13 15:01:45;;;;;;;8.65;1.88;;;;;;;;;;5004769;28;20037;-89
2023/04/13 15:04:11;;;;;;;10.40;2.20;;;;;;;;;;5000338;28;20041;-92
2023/04/13 15:06:38;;;;;;;5.18;1.90;;;;;;;;;;4998837;28;20027;-90
2023/04/13 15:09:05;;;;;;;7.85;1.80;;;;;;;;;;5002211;28;20019;-88
2023/04/13 15:11:31;;;;;;;9.15;2.55;;;;;;;;;;5009786;28;20035;-92
2023/04/13 15:13:57;;;;;;;8.23;2.20;;;;;;;;;;5007611;28;20038;-89
2023/04/13 15:16:23;;;;;;;10.00;2.10;;;;;;;;;;5008440;28;20097;-90
2023/04/13 15:18:49;;;;;;;7.85;2.00;;;;;;;;;;5004427;28;20037;-88
2023/04/13 15:21:15;;;;;;;7.35;1.70;;;;;;;;;;5021075;28;20038;-91
2023/04/13 15:23:41;;;;;;;6.68;2.05;;;;;;;;;;5007611;28;20029;-88
2023/04/13 15:26:07;;;;;;;6.97;1.90;;;;;;;;;;5004442;28;20019;-89
2023/04/13 15:28:33;;;;;;;8.70;2.08;;;;;;;;;;5004860;28;20062;-90
2023/04/13 15:30:59;;;;;;;7.50;1.83;;;;;;;;;;4999966;28;20046;-89
2023/04/13 15:33:25;;;;;;;10.38;2.25;;;;;;;;;;5006777;28;20039;-89
2023/04/13 15:35:51;;;;;;;10.27;2.45;;;;;;;;;;5010849;28;21146;-89
2023/04/13 15:38:17;;;;;;;7.70;2.20;;;13.80;84.20;;;;;;5004981;28;20029;-90
2023/04/13 15:40:44;;;;;;;5.38;1.70;;;;;;;;;;5003337;28;20027;-88
2023/04/13 15:43:10;;;;;;;9.65;1.92;;;;;;;;;;5009399;28;20045;-90
2023/04/13 15:45:36;;;;;;;6.07;2.05;;;;;;;;;;5009068;28;20045;-89
2023/04/13 15:48:02;;;;;;;9.57;2.47;;;;;;;;;;5004968;28;20075;-89
2023/04/13 15:50:28;;;;;;;9.73;2.05;;;;;;;;;;5009530;28;20033;-89
2023/04/13 15:52:54;;;;;;;9.48;2.05;;;;;;;;;;5006350;28;20034;-90
2023/04/13 15:55:20;;;;;;;7.40;1.65;;;14.40;79.50;;;;;;5022497;28;20141;-89
2023/04/13 15:57:49;;;;;;;6.22;1.90;;;;;;;;;;5011933;28;20112;-89
2023/04/13 16:00:16;;;;;;;7.30;1.88;;;;;;;;;;5008105;28;20102;-90
2023/04/13 16:02:42;;;;;;;8.80;1.90;;;;;;;;;;5005801;28;20802;-89
2023/04/13 16:05:11;;;;;;;6.97;1.58;;;;;;;;;;5024213;28;20006;-89
2023/04/13 16:07:45;;;;;;;5.53;1.50;;;;;;;;;;4995557;28;20213;-89
2023/04/13 16:10:15;;;;;;;7.32;1.85;;;;;;;;;;5006351;28;20023;-90